Time;durP1;ratioP1;P1;durP2;ratioP2;P2;SDS_P1;SDS_P2;PMS_P1;PMS_P2;Temp;Humidity;BMP_temperature;BMP_pressure;BME280_temperature;BME280_humidity;BME280_pressure;Samples;Min_cycle;Max_cycle;Signal;HPM_P1;HPM_P2
2023/08/14 00:01:02;;;;;;;2.63;1.90;;;16.50;99.90;;;;;;5051753;28;20037;-67
2023/08/14 00:03:28;;;;;;;4.32;2.17;;;16.50;99.90;;;;;;5051695;28;20510;-67
2023/08/14 00:05:53;;;;;;;2.72;1.48;;;16.50;99.90;;;;;;5049322;28;20529;-67
2023/08/14 00:08:19;;;;;;;3.85;1.60;;;16.50;99.90;;;;;;5051427;28;20056;-67
2023/08/14 00:10:45;;;;;;;3.30;1.70;;;16.50;99.90;;;;;;5047987;28;20029;-67
2023/08/14 00:13:11;;;;;;;4.05;1.90;;;16.50;99.90;;;;;;5052229;28;20063;-67
2023/08/14 00:15:37;;;;;;;1.88;1.60;;;16.50;99.90;;;;;;5047093;28;20037;-67
2023/08/14 00:18:04;;;;;;;2.35;2.00;;;16.50;99.90;;;;;;5051167;28;20186;-67
2023/08/14 00:20:30;;;;;;;2.08;1.58;;;16.40;99.90;;;;;;5030883;28;20045;-67
2023/08/14 00:22:55;;;;;;;1.90;1.70;;;16.40;99.90;;;;;;5050598;28;20039;-67
2023/08/14 00:25:21;;;;;;;2.30;1.55;;;16.40;99.90;;;;;;5047514;28;20043;-67
2023/08/14 00:27:47;;;;;;;1.83;1.40;;;16.40;99.90;;;;;;5048050;28;20514;-67
2023/08/14 00:30:13;;;;;;;2.50;1.75;;;16.40;99.90;;;;;;5084853;22;20047;-67
2023/08/14 00:32:38;;;;;;;2.35;1.83;;;16.40;99.90;;;;;;5083843;28;20434;-67
2023/08/14 00:35:04;;;;;;;3.90;2.40;;;16.30;99.90;;;;;;5085758;28;20032;-67
2023/08/14 00:37:46;;;;;;;3.03;2.10;;;16.40;99.90;;;;;;5091533;28;20062;-67
2023/08/14 00:40:14;;;;;;;2.90;2.10;;;16.40;99.90;;;;;;5078363;28;20052;-67
2023/08/14 00:42:42;;;;;;;4.97;2.70;;;16.40;99.90;;;;;;5072002;28;20037;-67
2023/08/14 00:45:09;;;;;;;3.33;2.58;;;16.30;99.90;;;;;;5069819;28;20124;-67
2023/08/14 00:47:35;;;;;;;3.55;2.60;;;16.40;99.90;;;;;;5055435;28;20033;-68
2023/08/14 00:50:06;;;;;;;3.95;2.65;;;16.40;99.90;;;;;;5068165;28;20131;-67
2023/08/14 00:52:36;;;;;;;2.60;2.40;;;16.30;99.90;;;;;;5065449;28;20112;-67
2023/08/14 00:55:07;;;;;;;3.53;2.22;;;16.30;99.90;;;;;;5065870;28;20044;-67
2023/08/14 00:57:34;;;;;;;4.85;3.38;;;16.30;99.90;;;;;;5064699;28;20036;-67
2023/08/14 01:00:05;;;;;;;3.67;2.50;;;16.30;99.90;;;;;;5067376;28;20084;-67
2023/08/14 01:02:31;;;;;;;3.83;2.70;;;16.30;99.90;;;;;;5062456;28;20068;-67
2023/08/14 01:04:56;;;;;;;2.90;2.60;;;16.30;99.90;;;;;;5069099;28;20081;-67
2023/08/14 01:07:24;;;;;;;5.85;4.13;;;16.30;99.90;;;;;;5066637;28;20040;-67
2023/08/14 01:09:50;;;;;;;4.00;2.88;;;16.30;99.90;;;;;;5062183;28;20498;-68
2023/08/14 01:12:37;;;;;;;2.85;2.55;;;16.30;99.90;;;;;;5063267;28;20043;-67
2023/08/14 01:15:08;;;;;;;3.78;3.38;;;16.20;99.90;;;;;;5064496;28;20048;-67
2023/08/14 01:17:36;;;;;;;3.53;3.22;;;16.20;99.90;;;;;;5066185;28;20028;-67
2023/08/14 01:20:04;;;;;;;3.40;3.10;;;16.20;99.90;;;;;;5065774;28;20124;-67
2023/08/14 01:22:57;;;;;;;2.70;2.50;;;16.10;99.90;;;;;;5065378;28;20534;-67
2023/08/14 01:25:31;;;;;;;2.80;2.53;;;16.20;99.90;;;;;;5063395;28;20109;-67
2023/08/14 01:27:57;;;;;;;4.40;4.00;;;16.10;99.90;;;;;;5062140;28;20039;-67
2023/08/14 01:30:23;;;;;;;5.50;4.20;;;16.10;99.90;;;;;;5072284;28;20036;-67
2023/08/14 01:32:50;;;;;;;8.02;4.55;;;16.00;99.90;;;;;;5057742;28;20039;-67
2023/08/14 01:35:20;;;;;;;7.07;5.05;;;16.00;99.90;;;;;;5055117;28;20116;-67
2023/08/14 01:38:21;;;;;;;5.28;4.45;;;16.10;99.90;;;;;;5061067;28;20045;-68
2023/08/14 01:41:04;;;;;;;13.48;5.25;;;16.00;99.90;;;;;;5029515;28;20502;-67
2023/08/14 01:43:31;;;;;;;4.18;3.42;;;16.00;99.90;;;;;;5072411;28;20036;-67
2023/08/14 01:45:57;;;;;;;10.75;4.43;;;15.90;99.90;;;;;;5073073;28;20068;-67
2023/08/14 01:48:24;;;;;;;11.40;5.50;;;15.90;99.90;;;;;;5069471;28;20041;-67
2023/08/14 01:50:52;;;;;;;6.57;4.57;;;15.90;99.90;;;;;;5043774;28;20050;-67
2023/08/14 01:53:18;;;;;;;6.38;4.03;;;15.90;99.90;;;;;;5064521;28;20029;-67
2023/08/14 01:55:45;;;;;;;5.93;3.72;;;15.90;99.90;;;;;;5068163;28;20035;-67
2023/08/14 01:58:10;;;;;;;6.63;4.53;;;15.90;99.90;;;;;;5062170;28;20116;-67
2023/08/14 02:00:37;;;;;;;4.60;3.55;;;15.80;99.90;;;;;;5065079;28;20124;-67
2023/08/14 02:03:03;;;;;;;4.40;3.42;;;15.80;99.90;;;;;;5056242;28;20088;-67
2023/08/14 02:05:28;;;;;;;4.55;3.90;;;15.70;99.90;;;;;;5065740;28;20028;-67
2023/08/14 02:07:54;;;;;;;5.47;4.18;;;15.70;99.90;;;;;;5076074;28;20444;-67
2023/08/14 02:10:20;;;;;;;5.15;4.07;;;15.70;99.90;;;;;;5059650;28;20037;-67
2023/08/14 02:12:46;;;;;;;5.10;3.95;;;15.70;99.90;;;;;;5070215;28;20111;-67
2023/08/14 02:15:12;;;;;;;5.38;4.35;;;15.70;99.90;;;;;;5071799;28;20059;-67
2023/08/14 02:17:38;;;;;;;4.75;3.92;;;15.70;99.90;;;;;;5073868;28;20115;-67
2023/08/14 02:20:04;;;;;;;5.60;3.83;;;15.60;99.90;;;;;;5064041;28;20123;-67
2023/08/14 02:22:30;;;;;;;7.93;4.72;;;15.60;99.90;;;;;;5070329;28;20044;-67
2023/08/14 02:24:55;;;;;;;5.90;5.30;;;15.60;99.90;;;;;;5066977;28;20047;-67
2023/08/14 02:27:21;;;;;;;5.53;4.88;;;15.70;99.90;;;;;;5066470;28;20029;-67
2023/08/14 02:29:47;;;;;;;9.00;5.45;;;15.60;99.90;;;;;;5045848;28;20053;-67
2023/08/14 02:32:12;;;;;;;7.05;5.28;;;15.60;99.90;;;;;;5073387;28;20040;-67
2023/08/14 02:34:44;;;;;;;7.22;4.80;;;15.60;99.90;;;;;;5073207;28;20039;-67
2023/08/14 02:37:10;;;;;;;8.95;6.00;;;15.60;99.90;;;;;;5073313;28;20089;-67
2023/08/14 02:39:36;;;;;;;6.60;5.13;;;15.60;99.90;;;;;;5064841;28;20041;-67
2023/08/14 02:42:02;;;;;;;6.40;5.65;;;15.60;99.90;;;;;;5068472;28;20028;-67
2023/08/14 02:44:27;;;;;;;8.45;6.22;;;15.60;99.90;;;;;;5046523;28;20029;-67
2023/08/14 02:46:54;;;;;;;10.00;7.63;;;15.50;99.90;;;;;;5065190;28;20029;-67
2023/08/14 02:49:20;;;;;;;7.20;5.40;;;15.60;99.90;;;;;;5065392;28;20065;-68
2023/08/14 02:51:45;;;;;;;8.77;6.47;;;15.60;99.90;;;;;;5060845;28;20037;-67
2023/08/14 02:54:11;;;;;;;7.50;6.28;;;15.60;99.90;;;;;;5071897;28;20035;-67
2023/08/14 02:56:37;;;;;;;8.05;6.28;;;15.50;99.90;;;;;;5069738;28;20465;-67
2023/08/14 02:59:02;;;;;;;7.47;5.38;;;15.50;99.90;;;;;;5066223;28;20082;-68
2023/08/14 03:01:28;;;;;;;7.78;5.88;;;15.50;99.90;;;;;;5065602;28;20090;-68
2023/08/14 03:03:54;;;;;;;7.60;5.40;;;15.60;99.90;;;;;;5062555;28;20028;-67
2023/08/14 03:06:19;;;;;;;10.68;7.85;;;15.50;99.90;;;;;;5062177;28;20041;-67
2023/08/14 03:08:45;;;;;;;7.07;5.18;;;15.50;99.90;;;;;;5069132;28;20039;-67
2023/08/14 03:11:11;;;;;;;5.38;4.75;;;15.50;99.90;;;;;;5070150;28;20041;-67
2023/08/14 03:13:37;;;;;;;6.70;5.68;;;15.40;99.90;;;;;;5065710;28;20123;-67
2023/08/14 03:16:02;;;;;;;6.97;5.95;;;15.40;99.90;;;;;;5069312;28;20040;-67
2023/08/14 03:18:28;;;;;;;7.50;6.40;;;15.40;99.90;;;;;;5061111;28;20044;-67
2023/08/14 03:20:54;;;;;;;9.90;6.47;;;15.40;99.90;;;;;;5063786;28;20418;-67
2023/08/14 03:23:19;;;;;;;7.50;6.18;;;15.40;99.90;;;;;;5059962;28;20033;-67
2023/08/14 03:25:45;;;;;;;8.65;6.30;;;15.40;99.90;;;;;;5056004;28;20037;-67
2023/08/14 03:28:10;;;;;;;10.65;7.32;;;15.40;99.90;;;;;;5071381;28;20032;-67
2023/08/14 03:30:41;;;;;;;7.38;6.13;;;15.40;99.90;;;;;;5060978;28;20163;-67
2023/08/14 03:33:06;;;;;;;10.95;7.65;;;15.40;99.90;;;;;;5070163;28;20044;-67
2023/08/14 03:35:32;;;;;;;9.95;7.10;;;15.40;99.90;;;;;;5067749;28;20402;-67
2023/08/14 03:37:57;;;;;;;7.13;5.45;;;15.40;99.90;;;;;;5070487;28;20039;-67
2023/08/14 03:40:23;;;;;;;11.35;6.10;;;15.30;99.90;;;;;;5057450;28;20040;-67
2023/08/14 03:42:48;;;;;;;9.23;6.75;;;15.40;99.90;;;;;;5071988;28;20074;-67
2023/08/14 03:45:14;;;;;;;8.40;6.20;;;15.30;99.90;;;;;;5064349;28;20029;-67
2023/08/14 03:47:40;;;;;;;10.20;7.10;;;15.30;99.90;;;;;;5073636;28;20157;-67
2023/08/14 03:50:06;;;;;;;9.27;7.10;;;15.30;99.90;;;;;;5059055;28;20048;-67
2023/08/14 03:52:31;;;;;;;8.23;6.22;;;15.30;99.90;;;;;;5066026;28;20095;-67
2023/08/14 03:54:57;;;;;;;8.50;6.30;;;15.30;99.90;;;;;;5070850;28;20510;-67
2023/08/14 03:57:22;;;;;;;8.70;6.40;;;15.30;99.90;;;;;;5071759;28;20039;-67
2023/08/14 03:59:48;;;;;;;11.57;7.43;;;15.30;99.90;;;;;;5071750;28;20083;-67
2023/08/14 04:02:14;;;;;;;11.48;7.72;;;15.20;99.90;;;;;;5073965;28;20033;-67
2023/08/14 04:04:39;;;;;;;9.32;6.68;;;15.30;99.90;;;;;;5061122;28;20127;-67
2023/08/14 04:07:05;;;;;;;8.73;7.30;;;15.20;99.90;;;;;;5060639;28;20044;-68
2023/08/14 04:09:30;;;;;;;9.65;7.90;;;15.20;99.90;;;;;;5069451;28;20044;-67
2023/08/14 04:11:56;;;;;;;11.15;7.60;;;15.20;99.90;;;;;;5065418;28;20394;-67
2023/08/14 04:14:23;;;;;;;10.43;7.57;;;15.30;99.90;;;;;;5053187;28;20124;-67
2023/08/14 04:16:48;;;;;;;9.10;7.28;;;15.30;99.90;;;;;;5058419;28;20367;-67
2023/08/14 04:19:15;;;;;;;11.27;7.47;;;15.30;99.90;;;;;;5066380;28;20124;-67
2023/08/14 04:21:42;;;;;;;10.10;6.80;;;15.20;99.90;;;;;;5058739;28;20506;-67
2023/08/14 04:24:07;;;;;;;7.32;5.25;;;15.20;99.90;;;;;;5058763;28;20056;-67
2023/08/14 04:26:33;;;;;;;7.28;6.38;;;15.20;99.90;;;;;;5048291;28;20040;-67
2023/08/14 04:28:59;;;;;;;8.05;6.70;;;15.20;99.90;;;;;;5069822;28;20041;-67
2023/08/14 04:31:25;;;;;;;9.48;7.10;;;15.20;99.90;;;;;;5061691;28;20078;-67
2023/08/14 04:33:51;;;;;;;9.75;6.65;;;15.20;99.90;;;;;;5069614;28;20115;-68
2023/08/14 04:36:16;;;;;;;8.38;6.55;;;15.20;99.90;;;;;;5071225;28;20029;-67
2023/08/14 04:38:42;;;;;;;8.10;6.57;;;15.20;99.90;;;;;;5070366;28;20077;-67
2023/08/14 04:41:07;;;;;;;9.25;7.10;;;15.20;99.90;;;;;;5068009;28;20049;-67
2023/08/14 04:43:33;;;;;;;10.85;8.68;;;15.20;99.90;;;;;;5038970;28;20032;-67
2023/08/14 04:46:08;;;;;;;11.80;8.73;;;15.20;99.90;;;;;;5069575;28;20040;-68
2023/08/14 04:48:33;;;;;;;13.18;7.60;;;15.30;99.90;;;;;;5052258;28;20036;-68
2023/08/14 04:50:59;;;;;;;9.40;6.90;;;15.30;99.90;;;;;;5060511;28;20568;-68
2023/08/14 04:53:25;;;;;;;12.55;9.23;;;15.30;99.90;;;;;;5065015;28;20032;-68
2023/08/14 04:55:51;;;;;;;9.70;7.95;;;15.40;99.90;;;;;;5070012;28;20043;-67
2023/08/14 04:58:16;;;;;;;12.45;7.60;;;15.40;99.90;;;;;;5067325;28;20043;-68
2023/08/14 05:00:42;;;;;;;11.63;8.25;;;15.40;99.90;;;;;;5062979;28;20045;-68
2023/08/14 05:03:08;;;;;;;10.30;7.45;;;15.50;99.90;;;;;;5069588;28;20047;-68
2023/08/14 05:05:33;;;;;;;12.43;7.63;;;15.40;99.90;;;;;;5074079;28;20029;-67
2023/08/14 05:07:59;;;;;;;8.93;7.43;;;15.50;99.90;;;;;;5074730;28;20119;-68
2023/08/14 05:10:24;;;;;;;12.23;7.53;;;15.50;99.90;;;;;;5068995;28;20489;-68
2023/08/14 05:12:50;;;;;;;9.73;7.63;;;15.50;99.90;;;;;;5063705;28;20037;-68
2023/08/14 05:15:16;;;;;;;10.65;8.05;;;15.50;99.90;;;;;;5052066;28;20082;-68
2023/08/14 05:17:41;;;;;;;10.30;8.00;;;15.60;99.90;;;;;;5044378;28;20039;-68
2023/08/14 05:20:08;;;;;;;11.43;7.80;;;15.60;99.90;;;;;;5063778;28;20044;-68
2023/08/14 05:22:34;;;;;;;10.15;7.97;;;15.60;99.90;;;;;;5068813;28;20028;-68
2023/08/14 05:25:00;;;;;;;12.52;7.82;;;15.70;99.90;;;;;;5065678;28;20059;-68
2023/08/14 05:27:26;;;;;;;9.27;7.40;;;15.70;99.90;;;;;;5067583;28;20090;-68
2023/08/14 05:29:51;;;;;;;10.18;7.47;;;15.80;99.90;;;;;;5068043;28;20111;-68
2023/08/14 05:32:17;;;;;;;12.88;8.23;;;15.80;99.90;;;;;;5049460;28;20452;-68
2023/08/14 05:34:42;;;;;;;11.90;7.93;;;15.90;99.90;;;;;;5069710;28;20066;-68
2023/08/14 05:37:08;;;;;;;12.23;7.90;;;15.90;99.90;;;;;;5066150;28;20445;-68
2023/08/14 05:39:34;;;;;;;16.05;8.50;;;16.00;99.90;;;;;;5066303;28;20045;-68
2023/08/14 05:41:59;;;;;;;12.48;8.80;;;16.10;99.90;;;;;;5038845;28;20037;-68
2023/08/14 05:44:25;;;;;;;12.32;8.40;;;16.10;99.90;;;;;;5051137;28;20065;-68
2023/08/14 05:46:51;;;;;;;12.98;9.00;;;16.30;99.90;;;;;;5072923;28;20413;-67
2023/08/14 05:49:16;;;;;;;13.35;9.02;;;16.30;99.90;;;;;;5065554;28;20048;-68
2023/08/14 05:51:43;;;;;;;13.13;8.40;;;16.40;99.90;;;;;;5064297;28;20047;-68
2023/08/14 05:54:08;;;;;;;17.10;8.88;;;16.50;99.90;;;;;;5069649;28;20036;-68
2023/08/14 05:56:34;;;;;;;15.98;9.63;;;16.50;99.90;;;;;;5070784;28;20520;-68
2023/08/14 05:59:00;;;;;;;13.90;9.02;;;16.50;99.90;;;;;;5052089;28;20478;-68
2023/08/14 06:01:26;;;;;;;15.52;8.98;;;16.60;99.90;;;;;;5067728;28;20045;-68
2023/08/14 06:03:52;;;;;;;15.57;9.18;;;16.60;99.90;;;;;;5067403;28;20032;-65
2023/08/14 06:06:17;;;;;;;12.32;9.05;;;16.70;99.90;;;;;;5067734;28;20496;-66
2023/08/14 06:08:43;;;;;;;13.85;9.30;;;16.80;99.90;;;;;;5057631;28;20041;-65
2023/08/14 06:11:09;;;;;;;18.02;9.43;;;16.80;99.90;;;;;;5054374;28;20040;-65
2023/08/14 06:13:34;;;;;;;16.45;9.57;;;16.90;99.90;;;;;;5057794;28;20394;-65
2023/08/14 06:16:00;;;;;;;17.40;9.45;;;16.90;99.90;;;;;;5068928;28;20072;-66
2023/08/14 06:18:25;;;;;;;15.23;9.68;;;17.00;99.90;;;;;;5069598;28;20037;-65
2023/08/14 06:20:51;;;;;;;15.02;9.35;;;17.10;99.90;;;;;;5061875;28;20383;-65
2023/08/14 06:23:17;;;;;;;14.77;8.95;;;17.20;99.90;;;;;;5069519;28;20078;-66
2023/08/14 06:25:42;;;;;;;14.07;8.93;;;17.20;99.90;;;;;;5051001;28;20524;-65
2023/08/14 06:28:08;;;;;;;15.45;9.00;;;17.30;99.90;;;;;;5062606;28;20041;-66
2023/08/14 06:30:34;;;;;;;15.30;9.05;;;17.40;99.90;;;;;;5080017;22;20044;-65
2023/08/14 06:33:01;;;;;;;14.32;9.40;;;17.50;99.90;;;;;;5071684;28;20032;-66
2023/08/14 06:35:27;;;;;;;13.43;9.60;;;17.50;99.90;;;;;;5072729;28;20041;-66
2023/08/14 06:37:52;;;;;;;15.98;9.65;;;17.50;99.90;;;;;;5073732;28;20544;-66
2023/08/14 06:40:18;;;;;;;12.77;9.52;;;17.60;99.90;;;;;;5072878;28;20048;-66
2023/08/14 06:42:43;;;;;;;15.75;8.98;;;17.60;99.90;;;;;;5072977;28;20037;-66
2023/08/14 06:45:09;;;;;;;18.88;9.68;;;17.70;99.90;;;;;;5053226;28;20080;-66
2023/08/14 06:47:44;;;;;;;15.13;8.70;;;17.70;99.90;;;;;;5059328;28;20032;-66
2023/08/14 06:50:10;;;;;;;13.35;8.85;;;17.70;99.90;;;;;;5071100;28;20517;-66
2023/08/14 06:52:36;;;;;;;17.38;9.25;;;17.80;99.90;;;;;;5073408;28;20090;-66
2023/08/14 06:55:01;;;;;;;14.82;8.35;;;17.70;99.90;;;;;;5073227;28;20405;-66
2023/08/14 06:57:27;;;;;;;13.50;9.73;;;17.80;99.90;;;;;;5073016;28;20178;-66
2023/08/14 06:59:52;;;;;;;13.93;8.30;;;17.90;99.90;;;;;;5071557;28;20049;-66
2023/08/14 07:02:18;;;;;;;11.25;7.93;;;17.90;99.90;;;;;;5069028;28;20040;-66
2023/08/14 07:04:44;;;;;;;13.45;8.60;;;17.90;99.90;;;;;;5064301;28;20040;-67
2023/08/14 07:07:09;;;;;;;14.27;8.93;;;17.90;99.90;;;;;;5072428;28;20029;-67
2023/08/14 07:09:35;;;;;;;14.25;9.27;;;18.00;99.90;;;;;;5062163;28;20032;-67
2023/08/14 07:12:01;;;;;;;16.52;8.65;;;18.00;99.90;;;;;;5069817;28;20102;-66
2023/08/14 07:14:26;;;;;;;15.75;9.02;;;18.10;99.90;;;;;;5069707;28;20037;-67
2023/08/14 07:16:52;;;;;;;10.82;8.48;;;18.10;99.90;;;;;;5069636;28;20036;-67
2023/08/14 07:19:17;;;;;;;15.65;8.55;;;18.20;99.90;;;;;;5070117;28;20048;-67
2023/08/14 07:21:44;;;;;;;12.40;8.02;;;18.20;99.90;;;;;;5064124;28;20063;-66
2023/08/14 07:24:12;;;;;;;11.15;7.57;;;18.20;99.90;;;;;;5084950;28;20040;-65
2023/08/14 07:26:39;;;;;;;16.65;7.40;;;18.30;99.90;;;;;;5066915;28;20044;-65
2023/08/14 07:29:04;;;;;;;16.20;7.68;;;18.30;99.90;;;;;;5065624;28;20045;-65
2023/08/14 07:31:30;;;;;;;17.65;7.65;;;18.30;99.90;;;;;;5068010;28;20040;-66
2023/08/14 07:33:56;;;;;;;11.95;7.72;;;18.40;99.90;;;;;;5066216;28;20235;-65
2023/08/14 07:36:21;;;;;;;9.98;6.93;;;18.40;99.90;;;;;;5066118;28;20101;-65
2023/08/14 07:38:47;;;;;;;11.60;7.28;;;18.50;99.90;;;;;;5063627;28;20024;-65
2023/08/14 07:41:12;;;;;;;11.90;7.30;;;18.60;99.90;;;;;;5065373;28;20051;-66
2023/08/14 07:43:38;;;;;;;13.23;7.90;;;18.70;99.90;;;;;;5068677;28;20063;-66
2023/08/14 07:46:04;;;;;;;16.00;8.63;;;18.70;99.90;;;;;;5066808;28;20497;-65
2023/08/14 07:48:29;;;;;;;12.82;8.00;;;18.90;99.90;;;;;;5063541;28;20044;-66
2023/08/14 07:50:55;;;;;;;14.45;8.35;;;19.10;99.90;;;;;;5064066;28;20037;-65
2023/08/14 07:53:21;;;;;;;12.93;7.22;;;19.30;99.90;;;;;;5065750;28;20060;-66
2023/08/14 07:55:49;;;;;;;13.15;8.50;;;19.40;99.90;;;;;;5062398;28;20469;-66
2023/08/14 07:58:16;;;;;;;11.05;7.82;;;19.60;99.90;;;;;;5065424;28;20392;-66
2023/08/14 08:00:42;;;;;;;11.65;7.75;;;19.70;99.90;;;;;;5070726;28;20037;-66
2023/08/14 08:03:08;;;;;;;13.63;7.45;;;19.90;99.90;;;;;;5044978;28;20223;-65
2023/08/14 08:05:33;;;;;;;11.88;7.85;;;19.90;99.90;;;;;;5061824;28;20127;-65
2023/08/14 08:08:01;;;;;;;11.50;7.30;;;19.90;99.90;;;;;;5063660;28;20107;-65
2023/08/14 08:10:27;;;;;;;11.38;7.28;;;20.00;99.90;;;;;;5060328;28;20044;-65
2023/08/14 08:12:52;;;;;;;13.27;7.07;;;20.20;99.90;;;;;;5062293;28;20101;-65
2023/08/14 08:15:18;;;;;;;10.75;7.05;;;20.40;99.90;;;;;;5062353;28;20048;-66
2023/08/14 08:17:44;;;;;;;13.15;6.78;;;20.60;99.90;;;;;;5063944;28;20091;-66
2023/08/14 08:20:11;;;;;;;11.75;6.40;;;20.70;99.90;;;;;;5064557;28;20037;-65
2023/08/14 08:22:37;;;;;;;9.93;6.47;;;20.80;99.90;;;;;;5069381;28;20044;-66
2023/08/14 08:25:03;;;;;;;9.82;6.00;;;20.90;99.90;;;;;;5066188;28;20200;-66
2023/08/14 08:27:29;;;;;;;7.70;6.10;;;21.00;99.90;;;;;;5067441;28;20028;-65
2023/08/14 08:29:54;;;;;;;9.07;5.68;;;21.20;99.90;;;;;;5069350;28;20063;-65
2023/08/14 08:32:20;;;;;;;10.35;5.32;;;21.30;99.90;;;;;;5067713;28;20081;-66
2023/08/14 08:34:46;;;;;;;8.73;5.13;;;21.40;99.90;;;;;;5063134;28;20184;-65
2023/08/14 08:37:11;;;;;;;12.50;6.15;;;21.50;99.90;;;;;;5060384;28;20049;-66
2023/08/14 08:39:37;;;;;;;6.88;4.78;;;21.70;99.90;;;;;;5062895;28;20048;-66
2023/08/14 08:42:06;;;;;;;7.57;3.58;;;21.90;99.90;;;;;;5071254;28;20037;-65
2023/08/14 08:44:33;;;;;;;4.80;2.20;;;22.10;99.90;;;;;;5064029;28;20037;-66
2023/08/14 08:47:10;;;;;;;4.57;2.03;;;22.20;99.90;;;;;;5067858;28;20201;-65
2023/08/14 08:49:36;;;;;;;4.43;2.15;;;22.40;99.90;;;;;;5068245;28;20032;-66
2023/08/14 08:52:03;;;;;;;3.55;2.13;;;22.60;99.90;;;;;;5063152;28;20040;-66
2023/08/14 08:54:30;;;;;;;4.93;2.67;;;22.70;99.90;;;;;;5067317;28;20033;-66
2023/08/14 08:56:56;;;;;;;4.18;2.25;;;22.80;99.90;;;;;;5070050;28;20028;-66
2023/08/14 08:59:23;;;;;;;4.55;2.17;;;22.90;99.90;;;;;;5068609;28;20562;-66
2023/08/14 09:01:49;;;;;;;5.45;2.50;;;23.00;99.90;;;;;;5067027;28;20052;-66
2023/08/14 09:04:15;;;;;;;6.53;2.55;;;23.10;99.90;;;;;;5065522;28;20029;-65
2023/08/14 09:06:40;;;;;;;7.57;2.75;;;23.20;99.90;;;;;;5063056;28;20025;-66
2023/08/14 09:09:08;;;;;;;6.22;2.83;;;23.30;99.90;;;;;;5066902;28;20046;-66
2023/08/14 09:11:34;;;;;;;8.13;2.85;;;23.40;99.90;;;;;;5064428;28;21301;-65
2023/08/14 09:14:00;;;;;;;5.35;2.60;;;23.40;99.90;;;;;;5062005;28;20044;-66
2023/08/14 09:16:27;;;;;;;7.15;3.40;;;23.40;99.90;;;;;;5069105;28;20033;-66
2023/08/14 09:18:57;;;;;;;7.28;2.80;;;23.40;99.90;;;;;;5069923;28;20524;-66
2023/08/14 09:21:24;;;;;;;7.65;2.58;;;23.50;99.90;;;;;;5061656;28;20041;-66
2023/08/14 09:23:49;;;;;;;7.47;2.90;;;23.50;99.90;;;;;;5061544;28;20032;-66
2023/08/14 09:26:15;;;;;;;5.22;2.67;;;23.60;99.90;;;;;;5060650;28;20036;-66
2023/08/14 09:28:41;;;;;;;5.50;2.85;;;23.70;99.90;;;;;;5064368;28;20066;-66
2023/08/14 09:31:12;;;;;;;6.55;2.80;;;23.80;99.90;;;;;;5070277;28;20431;-66
2023/08/14 09:33:42;;;;;;;3.92;2.28;;;23.90;99.90;;;;;;5069747;28;20512;-66
2023/08/14 09:36:08;;;;;;;5.22;2.65;;;24.00;99.90;;;;;;5071292;28;20049;-66
2023/08/14 09:38:34;;;;;;;7.13;3.03;;;24.10;99.90;;;;;;5069514;28;20032;-66
2023/08/14 09:41:01;;;;;;;7.20;3.17;;;24.20;99.90;;;;;;5069361;28;20525;-66
2023/08/14 09:43:28;;;;;;;6.63;3.17;;;24.20;99.90;;;;;;5069494;28;20363;-66
2023/08/14 09:45:57;;;;;;;6.63;3.47;;;24.20;99.90;;;;;;5069649;28;20047;-66
2023/08/14 09:48:38;;;;;;;4.65;2.78;;;24.20;99.90;;;;;;5069954;28;20045;-66
2023/08/14 09:51:04;;;;;;;7.40;3.15;;;24.20;99.90;;;;;;5074702;28;20040;-66
2023/08/14 09:53:29;;;;;;;5.50;3.25;;;24.20;99.90;;;;;;5073890;28;20040;-66
2023/08/14 09:55:57;;;;;;;8.88;3.58;;;24.30;99.90;;;;;;5074345;28;20089;-66
2023/08/14 09:58:22;;;;;;;7.15;3.33;;;24.40;99.90;;;;;;5074815;28;20445;-66
2023/08/14 10:00:48;;;;;;;7.18;3.20;;;24.50;99.90;;;;;;5072499;28;20036;-66
2023/08/14 10:03:15;;;;;;;5.70;2.75;;;24.50;99.90;;;;;;5074574;28;20043;-66
2023/08/14 10:05:41;;;;;;;5.78;2.60;;;24.60;99.90;;;;;;5074169;28;20398;-66
2023/08/14 10:08:08;;;;;;;5.35;2.65;;;24.70;99.90;;;;;;5074569;28;20039;-66
2023/08/14 10:10:36;;;;;;;5.13;2.33;;;24.70;99.90;;;;;;5074058;28;20040;-66
2023/08/14 10:13:08;;;;;;;7.97;2.40;;;24.60;99.90;;;;;;5072982;28;20504;-66
2023/08/14 10:15:42;;;;;;;5.45;2.95;;;24.70;99.90;;;;;;5073026;28;20394;-66
2023/08/14 10:18:14;;;;;;;7.40;3.05;;;24.80;99.90;;;;;;5072576;28;20036;-66
2023/08/14 10:20:42;;;;;;;5.32;1.90;;;24.80;99.90;;;;;;5074510;28;20070;-66
2023/08/14 10:23:09;;;;;;;6.57;1.60;;;24.90;99.90;;;;;;5074078;28;20041;-66
2023/08/14 10:25:37;;;;;;;3.17;1.60;;;24.90;99.90;;;;;;5071988;28;20521;-66
2023/08/14 10:28:04;;;;;;;3.85;1.50;;;25.00;99.90;;;;;;5072863;28;20055;-66
2023/08/14 10:30:31;;;;;;;4.50;1.50;;;25.10;99.90;;;;;;5072561;28;20520;-66
2023/08/14 10:32:57;;;;;;;2.28;1.00;;;25.10;99.90;;;;;;5072650;28;20087;-66
2023/08/14 10:35:23;;;;;;;3.33;1.40;;;25.10;99.90;;;;;;5073390;28;20068;-66
2023/08/14 10:37:49;;;;;;;3.25;1.85;;;25.00;99.90;;;;;;5072315;28;20094;-66
2023/08/14 10:40:24;;;;;;;3.55;1.90;;;25.10;99.90;;;;;;5073876;28;20401;-66
2023/08/14 10:42:56;;;;;;;4.70;1.88;;;25.10;99.90;;;;;;5073394;28;20033;-66
2023/08/14 10:45:23;;;;;;;5.25;1.70;;;25.10;99.90;;;;;;5072134;28;20070;-66
2023/08/14 10:47:50;;;;;;;4.57;1.45;;;25.20;99.90;;;;;;5073576;28;20040;-66
2023/08/14 10:50:34;;;;;;;5.35;1.60;;;25.30;99.90;;;;;;5073366;28;20040;-66
2023/08/14 10:53:03;;;;;;;4.88;1.60;;;25.30;99.90;;;;;;5072290;28;20093;-66
2023/08/14 10:55:42;;;;;;;4.10;1.60;;;25.30;99.90;;;;;;5073236;28;20041;-66
2023/08/14 10:58:36;;;;;;;3.90;1.50;;;25.30;99.90;;;;;;5073453;28;20044;-66
2023/08/14 11:01:03;;;;;;;4.55;1.50;;;25.30;99.90;;;;;;5071675;28;20494;-66
2023/08/14 11:03:30;;;;;;;3.53;1.50;;;25.40;99.90;;;;;;5073062;28;20033;-66
2023/08/14 11:05:56;;;;;;;6.07;1.50;;;25.40;99.90;;;;;;5073131;28;20047;-66
2023/08/14 11:08:23;;;;;;;3.97;1.80;;;25.50;99.90;;;;;;5073244;28;20032;-66
2023/08/14 11:10:49;;;;;;;4.28;1.77;;;25.50;99.90;;;;;;5073362;28;20040;-66
2023/08/14 11:13:16;;;;;;;4.25;1.63;;;25.60;99.90;;;;;;5071413;28;20048;-66
2023/08/14 11:15:42;;;;;;;5.50;1.80;;;25.60;99.90;;;;;;5071137;28;20041;-66
2023/08/14 11:18:09;;;;;;;4.47;1.85;;;25.60;99.90;;;;;;5071517;28;20119;-66
2023/08/14 11:20:44;;;;;;;5.45;1.65;;;25.60;99.90;;;;;;5072996;28;20336;-66
2023/08/14 11:23:10;;;;;;;2.83;1.58;;;25.50;99.90;;;;;;5071618;28;20045;-66
2023/08/14 11:25:36;;;;;;;5.40;2.00;;;25.50;99.90;;;;;;5070972;28;20508;-66
2023/08/14 11:28:02;;;;;;;3.15;1.77;;;25.60;99.90;;;;;;5072519;28;20048;-66
2023/08/14 11:30:33;;;;;;;6.82;2.08;;;25.70;99.90;;;;;;5072786;28;20050;-66
2023/08/14 11:32:58;;;;;;;4.20;1.88;;;25.80;99.90;;;;;;5072410;28;20051;-66
2023/08/14 11:35:28;;;;;;;7.20;2.10;;;25.90;99.90;;;;;;5072677;28;20119;-66
2023/08/14 11:37:55;;;;;;;6.60;2.47;;;26.00;99.90;;;;;;5072575;28;20032;-66
2023/08/14 11:40:20;;;;;;;5.38;2.35;;;25.90;99.90;;;;;;5072386;28;20048;-66
2023/08/14 11:42:46;;;;;;;5.57;2.72;;;25.80;99.90;;;;;;5071275;28;20040;-66
2023/08/14 11:45:12;;;;;;;4.78;2.60;;;25.60;99.90;;;;;;5072235;28;20041;-66
2023/08/14 11:47:40;;;;;;;6.15;2.70;;;25.40;99.90;;;;;;5072575;28;20036;-66
2023/08/14 11:50:07;;;;;;;7.22;2.80;;;25.20;99.90;;;;;;5071799;28;20078;-65
2023/08/14 11:52:34;;;;;;;4.40;2.70;;;25.10;99.90;;;;;;5071281;28;20506;-66
2023/08/14 11:55:01;;;;;;;2.88;2.30;;;25.10;99.90;;;;;;5071036;28;20067;-66
2023/08/14 11:57:29;;;;;;;6.65;2.40;;;25.20;99.90;;;;;;5070592;28;20524;-66
2023/08/14 11:59:57;;;;;;;8.27;2.10;;;25.40;99.90;;;;;;5072267;28;20112;-66
2023/08/14 12:02:24;;;;;;;3.83;1.98;;;25.60;99.90;;;;;;5071719;28;20535;-66
2023/08/14 12:04:54;;;;;;;5.15;2.28;;;25.60;99.90;;;;;;5072009;28;20659;-66
2023/08/14 12:07:20;;;;;;;5.82;2.17;;;25.60;99.90;;;;;;5071790;28;20040;-65
2023/08/14 12:09:47;;;;;;;5.30;2.00;;;25.40;99.90;;;;;;5072290;28;20045;-66
2023/08/14 12:12:14;;;;;;;6.95;1.80;;;25.30;99.90;;;;;;5071129;28;20044;-66
2023/08/14 12:14:46;;;;;;;4.60;2.00;;;25.10;99.90;;;;;;5071292;28;20401;-66
2023/08/14 12:17:13;;;;;;;4.07;1.80;;;25.10;99.90;;;;;;5070313;28;20040;-66
2023/08/14 12:19:39;;;;;;;6.97;2.10;;;25.20;99.90;;;;;;5072059;28;20059;-66
2023/08/14 12:22:08;;;;;;;4.88;1.90;;;25.40;99.90;;;;;;5071435;28;20047;-66
2023/08/14 12:24:42;;;;;;;5.07;1.58;;;25.60;99.90;;;;;;5071615;28;20401;-66
2023/08/14 12:27:34;;;;;;;4.28;1.73;;;25.70;99.90;;;;;;5070701;28;20032;-66
2023/08/14 12:30:00;;;;;;;4.50;1.95;;;25.80;99.90;;;;;;5090054;22;20097;-66
2023/08/14 12:32:26;;;;;;;6.85;2.22;;;25.80;99.90;;;;;;5073209;28;20048;-66
2023/08/14 12:34:52;;;;;;;5.43;2.00;;;25.70;99.90;;;;;;5091206;28;20036;-66
2023/08/14 12:37:18;;;;;;;4.90;1.98;;;25.70;99.90;;;;;;5092024;28;20040;-66
2023/08/14 12:39:48;;;;;;;5.68;2.17;;;25.80;99.90;;;;;;5091846;28;20044;-66
2023/08/14 12:42:14;;;;;;;4.33;1.73;;;25.80;99.90;;;;;;5091674;28;20036;-66